Time;durP1;ratioP1;P1;durP2;ratioP2;P2;SDS_P1;SDS_P2;PMS_P1;PMS_P2;Temp;Humidity;BMP_temperature;BMP_pressure;BME280_temperature;BME280_humidity;BME280_pressure;Samples;Min_cycle;Max_cycle;Signal;HPM_P1;HPM_P2
2021/08/21 00:00:32;;;;;;;2.03;1.70;;;;;;;23.48;51.40;100291.47;4957773;28;20034;-79
2021/08/21 00:02:58;;;;;;;1.98;1.77;;;;;;;23.43;51.36;100286.34;4957762;28;20556;-77
2021/08/21 00:05:24;;;;;;;2.55;1.70;;;;;;;23.42;51.87;100290.44;4957457;28;20031;-78
2021/08/21 00:07:49;;;;;;;2.42;1.83;;;;;;;23.40;51.72;100284.41;4957920;28;20054;-78
2021/08/21 00:10:15;;;;;;;2.58;2.28;;;;;;;23.43;51.56;100284.28;4957484;28;20415;-77
2021/08/21 00:12:41;;;;;;;3.38;2.35;;;;;;;23.20;51.84;100281.72;4957879;28;20415;-77
2021/08/21 00:15:11;;;;;;;2.30;2.10;;;;;;;23.11;52.16;100275.88;4957191;28;20041;-79
2021/08/21 00:17:37;;;;;;;2.33;2.15;;;;;;;23.18;52.47;100287.03;4957026;28;20110;-79
2021/08/21 00:20:05;;;;;;;4.03;2.20;;;;;;;23.26;52.62;100279.91;4957686;28;20053;-78
2021/08/21 00:22:31;;;;;;;2.28;1.70;;;;;;;23.16;52.76;100281.00;4956910;28;20042;-76
2021/08/21 00:24:56;;;;;;;2.10;2.00;;;;;;;23.09;53.13;100281.19;4957825;28;20039;-78
2021/08/21 00:27:25;;;;;;;2.60;1.90;;;;;;;23.06;53.54;100274.38;4957568;28;20034;-80
2021/08/21 00:29:51;;;;;;;2.33;1.85;;;;;;;23.07;53.60;100270.31;4960236;28;20038;-78
2021/08/21 00:32:17;;;;;;;2.42;2.22;;;;;;;23.12;53.25;100274.66;4960976;28;20031;-78
2021/08/21 00:34:42;;;;;;;2.03;1.88;;;;;;;23.14;53.05;100266.47;4961660;28;20034;-78
2021/08/21 00:37:08;;;;;;;1.63;1.52;;;;;;;23.17;53.17;100268.41;4961175;28;20129;-79
2021/08/21 00:39:34;;;;;;;2.88;1.88;;;;;;;23.12;52.80;100271.81;4960903;28;20390;-79
2021/08/21 00:41:59;;;;;;;3.13;1.77;;;;;;;23.09;53.09;100278.38;4960879;28;20039;-78
2021/08/21 00:44:25;;;;;;;3.45;1.60;;;;;;;23.06;53.47;100273.56;4961148;28;20256;-80
2021/08/21 00:47:06;;;;;;;1.70;1.60;;;;;;;22.98;53.53;100276.59;4960867;28;20046;-78
2021/08/21 00:49:36;;;;;;;2.20;1.92;;;;;;;22.99;53.50;100275.34;4961208;28;20119;-77
2021/08/21 00:52:05;;;;;;;2.35;1.88;;;;;;;22.97;53.45;100275.03;4979068;28;20031;-79
2021/08/21 00:54:30;;;;;;;1.63;1.52;;;;;;;22.99;53.78;100277.41;4960735;28;20114;-79
2021/08/21 00:56:59;;;;;;;3.00;2.17;;;;;;;23.05;53.59;100274.81;4961550;28;20128;-77
2021/08/21 00:59:25;;;;;;;3.60;2.10;;;;;;;23.09;53.58;100278.38;4961228;28;20023;-79
2021/08/21 01:01:51;;;;;;;5.18;2.35;;;;;;;23.05;53.60;100278.44;4960715;28;20537;-78
2021/08/21 01:04:18;;;;;;;3.70;2.45;;;;;;;23.07;53.78;100275.97;4960859;28;20027;-77
2021/08/21 01:06:49;;;;;;;2.20;2.00;;;;;;;23.07;53.74;100280.88;4961017;28;20389;-76
2021/08/21 01:09:14;;;;;;;2.90;2.50;;;;;;;23.07;54.08;100284.50;4961391;28;20043;-80
2021/08/21 01:11:40;;;;;;;2.17;1.90;;;;;;;23.04;54.17;100287.41;4960796;28;20038;-78
2021/08/21 01:14:06;;;;;;;2.10;1.90;;;;;;;23.05;53.94;100278.44;4960980;28;20073;-79
2021/08/21 01:16:31;;;;;;;4.15;1.67;;;;;;;23.08;53.86;100279.63;4972351;28;20074;-77
2021/08/21 01:18:57;;;;;;;5.45;2.42;;;;;;;23.02;54.12;100284.25;4962787;28;20026;-77
2021/08/21 01:21:23;;;;;;;2.00;1.80;;;;;;;23.02;53.97;100284.25;4961080;28;20089;-78
2021/08/21 01:23:49;;;;;;;4.15;2.28;;;;;;;22.98;53.58;100285.13;4960369;28;20394;-80
2021/08/21 01:26:14;;;;;;;2.35;1.90;;;;;;;22.97;53.76;100277.84;4960553;28;20034;-77
2021/08/21 01:28:40;;;;;;;1.90;1.80;;;;;;;22.95;54.18;100288.84;4960373;28;20069;-79
2021/08/21 01:31:07;;;;;;;4.35;1.65;;;;;;;22.88;54.53;100291.88;4960179;28;20046;-80
2021/08/21 01:33:35;;;;;;;2.30;1.98;;;;;;;22.85;54.50;100281.41;4944212;28;20042;-79
2021/08/21 01:36:03;;;;;;;2.47;2.28;;;;;;;22.90;54.15;100283.69;4960269;28;20181;-78
2021/08/21 01:38:28;;;;;;;2.20;2.03;;;;;;;22.79;54.49;100288.81;4960479;28;20034;-79
2021/08/21 01:40:56;;;;;;;3.10;2.13;;;;;;;22.75;54.58;100276.78;4976428;28;20031;-80
2021/08/21 01:43:23;;;;;;;2.33;2.15;;;;;;;22.54;55.36;100289.47;4960075;28;20097;-76
2021/08/21 01:45:49;;;;;;;2.75;2.50;;;;;;;22.52;55.42;100277.75;4959675;28;20125;-79
2021/08/21 01:48:16;;;;;;;3.55;2.28;;;;;;;22.31;55.83;100281.09;4959644;28;20069;-77
2021/08/21 01:50:42;;;;;;;4.82;2.40;;;;;;;22.17;56.55;100274.53;4960180;28;20197;-76
2021/08/21 01:53:16;;;;;;;4.90;2.75;;;;;;;22.24;56.29;100276.41;4959896;28;20034;-80
2021/08/21 01:55:42;;;;;;;2.85;2.65;;;;;;;22.20;56.43;100279.31;4959852;28;20065;-77
2021/08/21 01:58:10;;;;;;;2.63;2.03;;;;;;;22.12;57.21;100265.78;4959591;28;20031;-79
2021/08/21 02:00:36;;;;;;;2.85;2.42;;;;;;;22.17;56.77;100270.91;4959679;28;20035;-80
2021/08/21 02:03:01;;;;;;;2.55;2.35;;;;;;;22.24;56.83;100273.56;4959616;28;20397;-78
2021/08/21 02:05:27;;;;;;;3.45;2.15;;;;;;;22.30;56.75;100268.19;4959115;28;20382;-79
2021/08/21 02:07:53;;;;;;;4.90;2.45;;;;;;;22.38;56.07;100263.94;4959434;28;20116;-80
2021/08/21 02:10:19;;;;;;;5.00;2.45;;;;;;;22.41;55.77;100269.50;4959363;28;20031;-78
2021/08/21 02:12:45;;;;;;;3.45;2.15;;;;;;;22.32;56.08;100275.00;4959383;28;20077;-77
2021/08/21 02:15:16;;;;;;;2.45;2.25;;;;;;;22.36;56.28;100258.69;4959584;28;20050;-78
2021/08/21 02:17:42;;;;;;;2.80;2.00;;;;;;;22.37;56.35;100260.31;4958861;28;20051;-79
2021/08/21 02:20:12;;;;;;;2.90;2.42;;;;;;;22.46;56.19;100260.47;4959017;28;20034;-78
2021/08/21 02:22:43;;;;;;;2.13;1.95;;;;;;;22.52;56.08;100259.94;4958970;28;20034;-79
2021/08/21 02:25:11;;;;;;;2.33;2.13;;;;;;;22.55;55.94;100254.19;4959644;28;20050;-79
2021/08/21 02:27:39;;;;;;;5.20;2.58;;;;;;;22.54;55.65;100263.16;4959206;28;20034;-81
2021/08/21 02:30:06;;;;;;;3.50;2.38;;;;;;;22.57;55.24;100259.41;4958826;28;20035;-79
2021/08/21 02:32:31;;;;;;;3.50;2.20;;;;;;;22.56;55.52;100247.28;4959238;28;20030;-77
2021/08/21 02:34:57;;;;;;;1.98;1.80;;;;;;;22.59;55.31;100252.06;4959221;28;20374;-77
2021/08/21 02:37:23;;;;;;;1.95;1.83;;;;;;;22.62;55.44;100251.16;4958652;28;20510;-79
2021/08/21 02:39:49;;;;;;;2.85;2.40;;;;;;;22.59;55.65;100249.25;4958881;28;20038;-78
2021/08/21 02:42:15;;;;;;;3.92;2.13;;;;;;;22.63;55.35;100251.97;4958922;28;20118;-77
2021/08/21 02:44:41;;;;;;;3.83;2.67;;;;;;;22.57;55.59;100248.06;4958559;28;20030;-80
2021/08/21 02:47:07;;;;;;;2.70;2.08;;;;;;;22.57;55.44;100245.25;4976421;28;20027;-77
2021/08/21 02:49:33;;;;;;;2.90;2.35;;;;;;;22.56;55.48;100255.00;4959251;28;20485;-78
2021/08/21 02:51:59;;;;;;;2.58;2.10;;;;;;;22.54;55.76;100249.78;4958421;28;20066;-77
2021/08/21 02:54:25;;;;;;;2.92;2.45;;;;;;;22.50;56.03;100243.38;4958428;28;20065;-80
2021/08/21 02:56:53;;;;;;;2.40;2.17;;;;;;;22.54;55.92;100249.78;4958671;28;20026;-80
2021/08/21 02:59:24;;;;;;;2.65;2.45;;;;;;;22.48;56.02;100254.38;4958379;28;20444;-78
2021/08/21 03:01:50;;;;;;;3.30;2.35;;;;;;;22.43;56.28;100250.03;4958556;28;20062;-77
2021/08/21 03:04:16;;;;;;;2.42;2.22;;;;;;;22.42;56.23;100250.47;4958738;28;20065;-76
2021/08/21 03:06:41;;;;;;;3.25;2.10;;;;;;;22.39;56.30;100251.38;4958229;28;20031;-78
2021/08/21 03:09:07;;;;;;;3.20;2.63;;;;;;;22.37;56.63;100257.47;4958468;28;20034;-79
2021/08/21 03:11:32;;;;;;;4.00;2.08;;;;;;;22.43;56.63;100257.75;4958453;28;20593;-77
2021/08/21 03:13:58;;;;;;;2.70;2.35;;;;;;;22.42;56.44;100254.09;4958357;28;20545;-80
2021/08/21 03:16:24;;;;;;;3.95;2.40;;;;;;;22.41;56.31;100252.50;4957760;28;20046;-77
2021/08/21 03:18:52;;;;;;;3.03;2.10;;;;;;;22.51;56.08;100256.31;4958630;28;20035;-79
2021/08/21 03:21:18;;;;;;;3.22;2.15;;;;;;;22.46;56.13;100254.00;4958267;28;20031;-79
2021/08/21 03:23:44;;;;;;;3.90;2.72;;;;;;;22.42;56.67;100256.94;4958519;28;20048;-79
2021/08/21 03:26:09;;;;;;;2.88;2.45;;;;;;;22.48;56.64;100260.84;4957951;28;20482;-78
2021/08/21 03:28:35;;;;;;;3.88;2.28;;;;;;;22.44;56.53;100259.34;4957887;28;20030;-78
2021/08/21 03:31:01;;;;;;;2.92;2.20;;;;;;;22.39;56.68;100260.66;4958247;28;20105;-76
2021/08/21 03:33:27;;;;;;;2.63;2.42;;;;;;;22.36;56.94;100258.69;4958111;28;20117;-80
2021/08/21 03:35:54;;;;;;;3.22;2.50;;;;;;;22.36;56.72;100264.38;4957875;28;20122;-76
2021/08/21 03:38:22;;;;;;;2.17;2.08;;;;;;;22.36;56.68;100261.53;4957774;28;20113;-76
2021/08/21 03:40:51;;;;;;;2.80;2.60;;;;;;;22.41;56.74;100263.84;4957996;28;20130;-79
2021/08/21 03:43:19;;;;;;;3.15;2.38;;;;;;;22.45;56.67;100258.88;4958193;28;20043;-79
2021/08/21 03:45:44;;;;;;;2.95;2.70;;;;;;;22.51;56.73;100267.66;4957522;28;20066;-79
2021/08/21 03:48:11;;;;;;;2.65;2.10;;;;;;;22.52;56.71;100263.56;4958068;28;20065;-79
2021/08/21 03:50:37;;;;;;;3.10;2.40;;;;;;;22.44;56.80;100257.31;4957596;28;20034;-79
2021/08/21 03:53:03;;;;;;;2.65;2.45;;;;;;;22.49;56.75;100270.94;4958065;28;20082;-79
2021/08/21 03:55:29;;;;;;;4.00;2.25;;;;;;;22.55;56.93;100273.25;4974463;28;20031;-78
2021/08/21 03:57:54;;;;;;;3.60;2.30;;;;;;;22.53;56.75;100268.03;4957924;28;20030;-79
2021/08/21 04:00:20;;;;;;;2.95;2.20;;;;;;;22.53;57.01;100270.88;4957703;28;20363;-79
2021/08/21 04:02:45;;;;;;;3.28;2.17;;;;;;;22.47;57.10;100272.63;4957938;28;20066;-78
2021/08/21 04:05:13;;;;;;;2.30;2.10;;;;;;;22.41;57.10;100275.19;4961034;28;20398;-80
2021/08/21 04:07:39;;;;;;;5.18;2.42;;;;;;;22.44;57.29;100285.66;4961324;28;20037;-79
2021/08/21 04:10:10;;;;;;;2.40;2.20;;;;;;;22.42;57.21;100279.59;4961277;28;20031;-80
2021/08/21 04:12:36;;;;;;;2.80;2.60;;;;;;;22.48;57.24;100285.56;4961276;28;20037;-80
2021/08/21 04:15:02;;;;;;;2.88;2.25;;;;;;;22.49;57.16;100287.16;4961034;28;20023;-79
2021/08/21 04:17:28;;;;;;;2.63;2.38;;;;;;;22.55;57.04;100295.94;4960750;28;20059;-76
2021/08/21 04:19:57;;;;;;;4.25;2.30;;;;;;;22.49;57.03;100293.63;4961026;28;20109;-78
2021/08/21 04:22:22;;;;;;;3.08;2.50;;;;;;;22.46;57.11;100288.81;4961134;28;20035;-80
2021/08/21 04:24:50;;;;;;;3.15;2.47;;;;;;;22.47;56.97;100284.75;4961020;28;20023;-78
2021/08/21 04:27:17;;;;;;;3.20;2.72;;;;;;;22.45;57.37;100292.91;4961275;28;20030;-77
2021/08/21 04:29:43;;;;;;;3.03;2.58;;;;;;;22.43;57.37;100295.41;4960905;28;20101;-79
2021/08/21 04:32:08;;;;;;;4.32;2.60;;;;;;;22.49;57.34;100293.63;4961441;28;20067;-79
2021/08/21 04:34:35;;;;;;;4.13;3.05;;;;;;;22.49;57.59;100293.63;4961182;28;20462;-76
2021/08/21 04:37:05;;;;;;;3.55;2.22;;;;;;;22.51;57.31;100290.34;4961324;28;20031;-78
2021/08/21 04:39:33;;;;;;;4.82;2.53;;;;;;;22.55;57.29;100290.25;4960853;28;20117;-79
2021/08/21 04:42:01;;;;;;;2.55;2.30;;;;;;;22.63;57.10;100291.66;4961300;28;20035;-80
2021/08/21 04:44:27;;;;;;;2.92;2.45;;;;;;;23.05;55.85;100289.00;4945790;28;20357;-80
2021/08/21 04:46:53;;;;;;;5.85;2.80;;;;;;;23.41;54.92;100289.63;4960638;28;20109;-77
2021/08/21 04:49:18;;;;;;;7.47;2.97;;;;;;;23.76;54.13;100295.56;4960852;28;20065;-77
2021/08/21 04:51:44;;;;;;;7.40;2.95;;;;;;;24.10;53.05;100297.78;4960907;28;20059;-78
2021/08/21 04:54:10;;;;;;;4.65;2.47;;;;;;;24.44;52.26;100311.34;4960500;28;20031;-77
2021/08/21 04:56:38;;;;;;;6.20;3.63;;;;;;;24.79;51.25;100300.06;4960690;28;20038;-77
2021/08/21 04:59:04;;;;;;;6.85;2.63;;;;;;;25.16;49.98;100303.31;4960601;28;20043;-80
2021/08/21 05:01:30;;;;;;;19.05;3.33;;;;;;;25.43;49.49;100306.38;4960114;28;20097;-77
2021/08/21 05:03:57;;;;;;;5.03;2.40;;;;;;;25.84;48.61;100298.81;4959954;28;20039;-78
2021/08/21 05:06:23;;;;;;;6.00;2.97;;;;;;;26.11;47.52;100306.72;4960619;28;20125;-79
2021/08/21 05:08:49;;;;;;;4.88;2.42;;;;;;;26.43;46.97;100302.63;4960211;28;20431;-79
2021/08/21 05:11:14;;;;;;;6.00;2.33;;;;;;;26.76;46.26;100300.03;4960416;28;20065;-77
2021/08/21 05:13:40;;;;;;;3.58;2.10;;;;;;;27.05;45.56;100305.28;4960379;28;20462;-81
2021/08/21 05:16:05;;;;;;;4.45;2.50;;;;;;;27.19;44.81;100309.63;4958644;28;20473;-79
2021/08/21 05:18:37;;;;;;;4.90;2.50;;;;;;;27.35;45.16;100305.69;4960081;28;20027;-78
2021/08/21 05:21:10;;;;;;;3.63;2.35;;;;;;;27.59;44.83;100311.53;4960109;28;20034;-81
2021/08/21 05:23:38;;;;;;;5.45;2.42;;;;;;;27.90;44.21;100311.34;4977469;28;20030;-81
2021/08/21 05:26:04;;;;;;;2.72;2.38;;;;;;;28.17;42.84;100319.88;4960442;28;20355;-80
2021/08/21 05:28:30;;;;;;;3.17;2.40;;;;;;;28.50;42.49;100319.16;4959887;28;20023;-80
2021/08/21 05:30:57;;;;;;;4.93;3.20;;;;;;;28.61;41.98;100316.56;4960365;28;20061;-80
2021/08/21 05:33:23;;;;;;;2.47;1.90;;;;;;;28.28;42.00;100327.16;4959431;28;20125;-81
2021/08/21 05:35:49;;;;;;;2.88;2.67;;;;;;;28.57;41.12;100321.66;4960243;28;20117;-78
2021/08/21 05:38:14;;;;;;;2.78;2.10;;;;;;;28.79;40.65;100329.97;4959739;28;20501;-81
2021/08/21 05:40:40;;;;;;;2.72;2.15;;;;;;;29.07;39.24;100327.75;4960186;28;20049;-78
2021/08/21 05:43:08;;;;;;;5.78;2.05;;;;;;;29.68;38.30;100327.47;4960161;28;20054;-81
2021/08/21 05:45:39;;;;;;;3.28;2.38;;;;;;;29.90;37.68;100329.97;4960351;28;20046;-78
2021/08/21 05:48:05;;;;;;;2.45;1.88;;;;;;;30.32;36.67;100326.81;4960886;28;20069;-79
2021/08/21 05:50:30;;;;;;;2.88;2.10;;;;;;;30.70;36.40;100343.13;4960226;28;20037;-81
2021/08/21 05:52:58;;;;;;;5.55;2.20;;;;;;;31.05;36.09;100336.56;4960274;28;20034;-78
2021/08/21 05:55:24;;;;;;;3.67;2.35;;;;;;;30.98;36.50;100337.78;4959973;28;20031;-81
2021/08/21 05:57:50;;;;;;;3.63;2.45;;;;;;;31.19;35.71;100329.97;4959936;28;20125;-78
2021/08/21 06:00:15;;;;;;;3.47;2.45;;;;;;;31.37;35.62;100339.59;4959818;28;20110;-81
2021/08/21 06:02:46;;;;;;;3.85;2.00;;;;;;;31.66;34.52;100338.66;4960044;28;20035;-82
2021/08/21 06:05:15;;;;;;;3.38;2.47;;;;;;;32.19;34.15;100343.16;4960146;28;20034;-81
2021/08/21 06:07:43;;;;;;;3.22;2.92;;;;;;;32.27;33.90;100347.91;4959734;28;20041;-81
2021/08/21 06:10:09;;;;;;;2.40;2.08;;;;;;;32.45;33.47;100343.13;4959716;28;20038;-82
2021/08/21 06:12:35;;;;;;;2.15;1.88;;;;;;;32.49;33.57;100353.13;4960011;28;20035;-80
2021/08/21 06:15:04;;;;;;;2.63;1.85;;;;;;;32.18;33.83;100351.00;4959172;28;20038;-77
2021/08/21 06:17:32;;;;;;;2.42;1.80;;;;;;;31.16;35.47;100353.16;4958756;28;20055;-80
2021/08/21 06:19:59;;;;;;;5.00;1.83;;;;;;;31.27;35.73;100353.34;4959419;28;20438;-82
2021/08/21 06:22:25;;;;;;;3.53;1.92;;;;;;;31.47;35.29;100366.91;4959231;28;20133;-78
2021/08/21 06:24:53;;;;;;;2.40;2.13;;;;;;;31.37;35.81;100359.72;4959423;28;20027;-82
2021/08/21 06:27:18;;;;;;;2.85;1.98;;;;;;;30.83;36.64;100370.72;4958903;28;20054;-82
2021/08/21 06:29:44;;;;;;;2.20;1.73;;;;;;;31.40;36.45;100375.97;4959056;28;20116;-77
2021/08/21 06:32:10;;;;;;;5.18;2.13;;;;;;;31.32;36.46;100371.94;4959357;28;20050;-78
2021/08/21 06:34:35;;;;;;;3.72;2.30;;;;;;;31.39;36.53;100360.81;4962954;28;20027;-77
2021/08/21 06:37:02;;;;;;;4.50;2.00;;;;;;;31.47;36.84;100366.91;4969086;28;20053;-81
2021/08/21 06:39:30;;;;;;;2.95;2.67;;;;;;;31.65;36.32;100365.84;4959530;28;20035;-79
2021/08/21 06:41:58;;;;;;;3.63;2.72;;;;;;;31.28;36.79;100361.47;4958854;28;20129;-77
2021/08/21 06:44:23;;;;;;;3.97;2.30;;;;;;;31.44;36.76;100370.81;4959500;28;20451;-81
2021/08/21 06:46:49;;;;;;;2.47;2.17;;;;;;;31.14;37.30;100370.91;4958643;28;20046;-79
2021/08/21 06:49:15;;;;;;;5.15;2.33;;;;;;;31.39;36.38;100372.31;4958862;28;20105;-80
2021/08/21 06:51:41;;;;;;;2.30;2.20;;;;;;;31.24;36.87;100375.22;4958258;28;20501;-79
2021/08/21 06:54:06;;;;;;;2.75;2.47;;;;;;;32.09;35.35;100377.06;4958702;28;20069;-82
2021/08/21 06:56:34;;;;;;;4.65;2.47;;;;;;;31.70;36.18;100373.75;4958310;28;20498;-80
2021/08/21 06:59:00;;;;;;;4.25;3.17;;;;;;;31.99;35.72;100369.88;4957994;28;20027;-81
2021/08/21 07:01:27;;;;;;;2.85;2.55;;;;;;;32.08;35.66;100378.38;4958108;28;20069;-81
2021/08/21 07:03:55;;;;;;;3.85;3.03;;;;;;;31.92;35.84;100373.22;4958638;28;20054;-81
2021/08/21 07:06:23;;;;;;;5.60;3.65;;;;;;;31.42;36.41;100371.28;4958387;28;20102;-81
2021/08/21 07:08:49;;;;;;;5.75;3.28;;;;;;;31.41;36.83;100378.34;4958041;28;20107;-80
2021/08/21 07:11:14;;;;;;;5.55;3.78;;;;;;;31.36;37.51;100381.16;4958259;28;20046;-80
2021/08/21 07:13:40;;;;;;;5.78;3.20;;;;;;;31.03;37.77;100379.38;4958422;28;20474;-81
2021/08/21 07:16:05;;;;;;;5.03;3.20;;;;;;;31.23;38.04;100388.03;4957776;28;20395;-79
2021/08/21 07:18:31;;;;;;;6.10;3.72;;;;;;;32.19;35.94;100381.34;4957645;28;20034;-80
2021/08/21 07:20:57;;;;;;;4.53;3.42;;;;;;;32.25;35.21;100376.44;4957772;28;20034;-80
2021/08/21 07:23:23;;;;;;;7.13;3.35;;;;;;;31.67;36.02;100384.16;4957524;28;20031;-81
2021/08/21 07:25:48;;;;;;;6.15;3.10;;;;;;;32.33;35.13;100380.44;4957842;28;20030;-79
2021/08/21 07:28:14;;;;;;;7.10;4.65;;;;;;;31.90;36.27;100387.31;4957718;28;20026;-80
2021/08/21 07:30:39;;;;;;;6.35;4.18;;;;;;;32.06;35.95;100383.81;4958256;28;20035;-78
2021/08/21 07:33:05;;;;;;;5.72;3.95;;;;;;;32.05;36.00;100383.03;4957547;28;20034;-79
2021/08/21 07:35:30;;;;;;;8.73;3.97;;;;;;;31.90;36.04;100393.06;4957496;28;20023;-81
2021/08/21 07:37:56;;;;;;;3.55;3.13;;;;;;;32.38;34.64;100375.25;4957225;28;20070;-80
2021/08/21 07:40:21;;;;;;;4.47;3.70;;;;;;;32.72;34.33;100382.88;4958110;28;20041;-79
2021/08/21 07:42:47;;;;;;;8.27;3.80;;;;;;;33.28;33.16;100377.47;4957755;28;20031;-81
2021/08/21 07:45:13;;;;;;;10.25;4.50;;;;;;;33.09;33.12;100377.13;4957618;28;20031;-80
2021/08/21 07:47:39;;;;;;;4.38;3.85;;;;;;;33.08;32.90;100380.53;4957671;28;20031;-79
2021/08/21 07:50:05;;;;;;;5.78;4.10;;;;;;;33.66;31.68;100383.16;4957909;28;20039;-80
2021/08/21 07:52:31;;;;;;;4.72;3.55;;;;;;;34.34;30.29;100384.91;4958026;28;20026;-82
2021/08/21 07:54:57;;;;;;;5.70;3.70;;;;;;;34.75;30.15;100382.31;4957599;28;20377;-81
2021/08/21 07:57:22;;;;;;;3.78;3.13;;;;;;;34.68;29.32;100385.75;4957822;28;20114;-80
2021/08/21 07:59:48;;;;;;;3.42;2.90;;;;;;;34.50;27.95;100389.16;4957562;28;20034;-81
2021/08/21 08:02:18;;;;;;;3.20;2.90;;;;;;;35.19;27.73;100386.44;4957340;28;20027;-80
2021/08/21 08:04:43;;;;;;;4.18;3.25;;;;;;;35.40;27.76;100399.25;4957727;28;20460;-82
2021/08/21 08:07:09;;;;;;;3.15;2.78;;;;;;;35.79;26.85;100392.53;4957758;28;20058;-83
2021/08/21 08:09:35;;;;;;;2.42;2.20;;;;;;;35.02;27.09;100400.94;4957689;28;20390;-81
2021/08/21 08:12:00;;;;;;;1.75;1.63;;;;;;;35.24;25.79;100388.53;4957108;28;20494;-80
2021/08/21 08:14:26;;;;;;;3.42;2.00;;;;;;;34.67;27.11;100399.38;4957369;28;20129;-80
2021/08/21 08:16:52;;;;;;;3.05;2.47;;;;;;;34.61;27.62;100392.03;4957049;28;20063;-80
2021/08/21 08:19:18;;;;;;;3.28;2.15;;;;;;;33.96;28.14;100395.09;4957775;28;20478;-79
2021/08/21 08:21:44;;;;;;;4.43;2.33;;;;;;;34.14;27.98;100391.69;4962175;28;20042;-79
2021/08/21 08:24:10;;;;;;;2.33;2.05;;;;;;;34.49;27.02;100397.03;4958366;28;20417;-81
2021/08/21 08:26:36;;;;;;;1.80;1.70;;;;;;;35.11;24.20;100399.91;4957871;28;20039;-80
2021/08/21 08:29:02;;;;;;;1.75;1.63;;;;;;;35.18;24.39;100405.13;4957408;28;20041;-80
2021/08/21 08:31:27;;;;;;;1.63;1.52;;;;;;;36.10;24.18;100402.13;4957399;28;20058;-80
2021/08/21 08:33:55;;;;;;;3.47;2.03;;;;;;;36.80;23.95;100412.13;4957661;28;20034;-80
2021/08/21 08:36:20;;;;;;;3.63;2.00;;;;;;;37.00;22.70;100408.00;4957453;28;20035;-81
2021/08/21 08:38:46;;;;;;;2.28;1.83;;;;;;;37.06;21.98;100399.25;4957025;28;20061;-80
2021/08/21 08:41:12;;;;;;;2.22;1.88;;;;;;;37.75;21.60;100408.19;4957554;28;20062;-80
2021/08/21 08:43:40;;;;;;;1.67;1.58;;;;;;;37.84;21.30;100409.97;4957031;28;20027;-79
2021/08/21 08:46:08;;;;;;;2.05;1.85;;;;;;;38.31;20.42;100408.78;4957356;28;20027;-79
2021/08/21 08:48:37;;;;;;;2.13;1.90;;;;;;;37.84;20.98;100409.97;4957375;28;20023;-80
2021/08/21 08:51:03;;;;;;;2.15;1.70;;;;;;;38.17;20.72;100407.91;4959691;28;20039;-79
2021/08/21 08:53:31;;;;;;;1.60;1.50;;;;;;;38.58;19.18;100412.56;4960484;28;20047;-80
2021/08/21 08:55:57;;;;;;;1.83;1.55;;;;;;;38.67;19.70;100403.41;4960734;28;20039;-81
2021/08/21 08:58:25;;;;;;;1.50;1.40;;;;;;;38.68;19.99;100402.09;4960267;28;20101;-80
2021/08/21 09:00:50;;;;;;;2.83;1.83;;;;;;;38.78;19.83;100409.09;4960103;28;20027;-80
2021/08/21 09:03:22;;;;;;;1.60;1.50;;;;;;;39.31;19.67;100409.16;4960531;28;20093;-81
2021/08/21 09:05:49;;;;;;;1.80;1.70;;;;;;;39.49;19.34;100407.47;4960303;28;20074;-81
2021/08/21 09:08:24;;;;;;;2.60;2.00;;;;;;;39.17;19.29;100410.47;4960262;28;20084;-79
2021/08/21 09:10:49;;;;;;;1.80;1.70;;;;;;;39.24;19.22;100409.81;4960919;28;20031;-80
2021/08/21 09:13:17;;;;;;;3.00;1.63;;;;;;;38.19;20.31;100416.84;4960602;28;20101;-82
2021/08/21 09:15:44;;;;;;;2.92;1.80;;;;;;;37.26;21.17;100413.28;4960425;28;20034;-80
2021/08/21 09:18:21;;;;;;;2.08;1.85;;;;;;;36.91;21.71;100412.03;4959879;28;20089;-81
2021/08/21 09:20:51;;;;;;;4.55;1.98;;;;;;;36.86;21.79;100407.09;4960609;28;20034;-82
2021/08/21 09:23:36;;;;;;;1.95;1.67;;;;;;;37.45;21.21;100402.53;4960327;28;20038;-81
2021/08/21 09:26:12;;;;;;;3.88;2.60;;;;;;;38.16;20.68;100400.53;4959931;28;20114;-79
2021/08/21 09:28:40;;;;;;;2.55;1.75;;;;;;;38.70;19.94;100405.22;4960393;28;20035;-79
2021/08/21 09:31:21;;;;;;;2.10;1.77;;;;;;;38.80;19.87;100399.81;4959993;28;20031;-81
2021/08/21 09:34:01;;;;;;;2.92;2.22;;;;;;;39.21;19.86;100405.16;4976729;28;20484;-79
2021/08/21 09:36:38;;;;;;;2.03;1.83;;;;;;;39.20;19.77;100397.72;4960175;28;20540;-80
2021/08/21 09:39:06;;;;;;;2.38;2.17;;;;;;;39.47;19.28;100410.97;4977047;28;20038;-78
2021/08/21 09:41:54;;;;;;;3.10;2.20;;;;;;;39.37;19.47;100406.16;4959921;28;20031;-80
2021/08/21 09:44:37;;;;;;;1.85;1.75;;;;;;;39.14;19.14;100405.75;4959470;28;20039;-80
2021/08/21 09:47:15;;;;;;;2.38;1.85;;;;;;;39.11;19.47;100404.00;4959916;28;20038;-80
2021/08/21 09:49:43;;;;;;;2.40;1.88;;;;;;;39.30;19.07;100393.81;4959624;28;20035;-81
2021/08/21 09:52:17;;;;;;;2.10;1.90;;;;;;;39.55;19.27;100400.19;4959934;28;20038;-80
2021/08/21 09:54:45;;;;;;;3.28;2.00;;;;;;;39.66;18.83;100392.59;4959131;28;20042;-80
2021/08/21 09:57:13;;;;;;;2.95;1.83;;;;;;;39.91;18.51;100396.00;4959114;28;20027;-81
2021/08/21 09:59:41;;;;;;;2.25;1.67;;;;;;;39.69;19.03;100386.44;4959288;28;20030;-81
2021/08/21 10:02:09;;;;;;;2.40;1.67;;;;;;;40.04;18.41;100404.69;4958248;28;20061;-81
2021/08/21 10:04:36;;;;;;;4.78;2.60;;;;;;;39.97;18.11;100388.69;4959093;28;20455;-78
2021/08/21 10:07:08;;;;;;;6.45;2.35;;;;;;;39.48;18.99;100389.22;4958915;28;20027;-81
2021/08/21 10:09:36;;;;;;;5.10;1.83;;;;;;;38.49;19.08;100388.41;4976666;28;20026;-80
2021/08/21 10:12:04;;;;;;;2.00;1.75;;;;;;;37.12;20.72;100380.47;4959091;28;20033;-79
2021/08/21 10:14:30;;;;;;;2.20;1.98;;;;;;;36.79;21.56;100369.97;4958704;28;20034;-80
2021/08/21 10:16:57;;;;;;;2.25;1.60;;;;;;;36.92;21.33;100378.06;4942796;28;20059;-80
2021/08/21 10:19:24;;;;;;;2.10;1.90;;;;;;;37.65;20.60;100372.19;4958842;28;20038;-79
2021/08/21 10:21:52;;;;;;;3.10;2.05;;;;;;;37.83;20.18;100361.94;4958757;28;20027;-81
2021/08/21 10:24:40;;;;;;;1.98;1.88;;;;;;;38.17;19.98;100368.03;4959085;28;20030;-80
2021/08/21 10:27:26;;;;;;;2.60;2.40;;;;;;;36.31;22.40;100356.16;4959211;28;20469;-81
2021/08/21 10:30:06;;;;;;;2.63;2.00;;;;;;;35.34;24.94;100366.69;4958630;28;20031;-78
2021/08/21 10:32:39;;;;;;;2.53;1.85;;;;;;;35.84;23.81;100374.34;4958909;28;20378;-78
2021/08/21 10:35:06;;;;;;;1.98;1.88;;;;;;;36.06;23.72;100369.75;4958535;28;20023;-80
2021/08/21 10:37:38;;;;;;;2.63;1.95;;;;;;;36.35;23.35;100369.03;4958658;28;20106;-79
2021/08/21 10:40:25;;;;;;;1.70;1.60;;;;;;;36.91;23.03;100365.66;4959195;28;20027;-80
2021/08/21 10:42:56;;;;;;;2.13;1.77;;;;;;;36.51;22.69;100369.47;4958411;28;20062;-78
2021/08/21 10:45:54;;;;;;;2.90;1.98;;;;;;;37.01;22.33;100366.09;4958400;28;20030;-80
2021/08/21 10:48:22;;;;;;;2.63;2.05;;;;;;;37.88;21.35;100369.78;4916576;28;20437;-78
2021/08/21 10:50:51;;;;;;;2.33;1.70;;;;;;;38.21;21.36;100364.81;4959115;28;20097;-80
2021/08/21 10:53:27;;;;;;;1.90;1.80;;;;;;;38.20;21.05;100371.97;4959069;28;20085;-80
2021/08/21 10:55:53;;;;;;;2.30;2.03;;;;;;;37.85;21.03;100365.09;4958394;28;20490;-80
2021/08/21 10:58:20;;;;;;;1.85;1.75;;;;;;;37.42;22.14;100368.78;4958352;28;20042;-81
2021/08/21 11:00:46;;;;;;;2.05;1.95;;;;;;;36.64;22.50;100358.00;4975541;28;20029;-81
2021/08/21 11:03:12;;;;;;;1.58;1.48;;;;;;;36.37;23.38;100345.31;4959164;28;20418;-81
2021/08/21 11:06:07;;;;;;;1.80;1.50;;;;;;;36.43;23.65;100364.25;4958559;28;20458;-81
2021/08/21 11:08:37;;;;;;;3.08;1.60;;;;;;;35.54;25.26;100364.78;4975675;28;20089;-79
2021/08/21 11:14:21;;;;;;;2.05;1.48;;;;;;;35.58;25.12;100363.19;4967563;28;20454;-79
2021/08/21 11:17:11;;;;;;;2.67;1.98;;;;;;;35.90;24.39;100356.94;4957775;28;20510;-80
2021/08/21 11:19:44;;;;;;;2.60;1.85;;;;;;;36.87;23.29;100361.47;4974851;28;20035;-80
2021/08/21 11:22:12;;;;;;;2.17;1.90;;;;;;;36.52;23.40;100333.34;4958261;28;20038;-79
2021/08/21 11:24:57;;;;;;;1.65;1.55;;;;;;;37.47;22.26;100359.25;4957910;28;20478;-79
2021/08/21 11:27:24;;;;;;;2.25;1.83;;;;;;;37.51;22.60;100363.97;4957960;28;20037;-79
2021/08/21 11:30:09;;;;;;;2.40;2.17;;;;;;;36.92;22.08;100354.88;4958655;28;20022;-79